Time;durP1;ratioP1;P1;durP2;ratioP2;P2;SDS_P1;SDS_P2;PMS_P1;PMS_P2;Temp;Humidity;BMP_temperature;BMP_pressure;BME280_temperature;BME280_humidity;BME280_pressure;Samples;Min_cycle;Max_cycle;Signal;HPM_P1;HPM_P2
2022/05/18 00:01:39;;;;;;;;;;;16.30;99.90;;;;;;5044836;28;20416;-65
2022/05/18 00:04:04;;;;;;;8.65;3.88;;;16.30;99.90;;;;;;5045209;28;19920;-64
2022/05/18 00:06:30;;;;;;;;;;;16.30;99.90;;;;;;5045673;28;20049;-64
2022/05/18 00:08:55;;;;;;;7.88;3.75;;;16.20;99.90;;;;;;5045405;28;19921;-63
2022/05/18 00:11:21;;;;;;;;;;;16.20;99.90;;;;;;5045417;28;20577;-64
2022/05/18 00:13:52;;;;;;;11.50;3.55;;;16.20;99.90;;;;;;5045682;28;19921;-63
2022/05/18 00:16:20;;;;;;;13.07;4.00;;;16.20;99.90;;;;;;5045310;28;20122;-63
2022/05/18 00:18:45;;;;;;;5.05;3.40;;;16.20;99.90;;;;;;5035428;28;20072;-63
2022/05/18 00:21:11;;;;;;;;;;;16.20;99.90;;;;;;5023660;28;20666;-63
2022/05/18 00:23:37;;;;;;;13.02;3.95;;;16.20;99.90;;;;;;5031423;28;19920;-65
2022/05/18 00:26:03;;;;;;;;;;;16.20;99.90;;;;;;5032171;28;20077;-63
2022/05/18 00:28:28;;;;;;;8.88;3.28;;;16.20;99.90;;;;;;5031920;28;19916;-64
2022/05/18 00:30:54;;;;;;;;;;;16.20;99.90;;;;;;5029467;28;20038;-64
2022/05/18 00:33:20;;;;;;;6.32;3.08;;;16.20;99.90;;;;;;5031592;28;19917;-65
2022/05/18 00:35:45;;;;;;;;;;;16.20;99.90;;;;;;5031846;28;20184;-65
2022/05/18 00:38:11;;;;;;;;;;;16.20;99.90;;;;;;5032082;28;19974;-64
2022/05/18 00:40:37;;;;;;;;;;;16.20;99.90;;;;;;5032040;28;20039;-64
2022/05/18 00:43:03;;;;;;;;;;;16.30;99.90;;;;;;5032230;28;19932;-64
2022/05/18 00:45:29;;;;;;;;;;;16.30;99.90;;;;;;5031885;28;19921;-63
2022/05/18 00:47:54;;;;;;;;;;;16.30;99.90;;;;;;5031999;28;20360;-64
2022/05/18 00:50:22;;;;;;;;;;;16.30;99.90;;;;;;5030999;28;19983;-64
2022/05/18 00:52:51;;;;;;;;;;;16.30;99.90;;;;;;5031670;28;19921;-65
2022/05/18 00:55:19;;;;;;;;;;;16.40;99.90;;;;;;5032032;28;19924;-65
2022/05/18 00:57:47;;;;;;;;;;;16.30;99.90;;;;;;5031695;28;20010;-64
2022/05/18 01:00:14;;;;;;;;;;;16.40;99.90;;;;;;5031530;28;19921;-64
2022/05/18 01:02:43;;;;;;;;;;;16.30;99.90;;;;;;5030757;28;19925;-64
2022/05/18 01:05:10;;;;;;;;;;;16.30;99.90;;;;;;5030400;28;19931;-64
2022/05/18 01:07:42;;;;;;;;;;;16.40;99.90;;;;;;5030942;28;19921;-63
2022/05/18 01:10:07;;;;;;;;;;;16.30;99.90;;;;;;5031023;28;20012;-63
2022/05/18 01:12:33;;;;;;;;;;;16.40;99.90;;;;;;5031385;28;20008;-65
2022/05/18 01:15:04;;;;;;;;;;;16.40;99.90;;;;;;5031720;28;20021;-65
2022/05/18 01:17:31;;;;;;;;;;;16.30;99.90;;;;;;5031409;28;19917;-64
2022/05/18 01:19:58;;;;;;;;;;;16.30;99.90;;;;;;5030812;28;20389;-63
2022/05/18 01:22:23;;;;;;;;;;;16.30;99.90;;;;;;5030764;28;19928;-63
2022/05/18 01:24:58;;;;;;;;;;;16.40;99.90;;;;;;5031552;28;19917;-64
2022/05/18 01:27:25;;;;;;;;;;;16.30;99.90;;;;;;5031094;28;19921;-64
2022/05/18 01:29:51;;;;;;;;;;;16.30;99.90;;;;;;5029916;28;19924;-64
2022/05/18 01:32:17;;;;;;;;;;;16.30;99.90;;;;;;5029807;28;19923;-64
2022/05/18 01:34:42;;;;;;;;;;;16.30;99.90;;;;;;5029913;28;19921;-64
2022/05/18 01:37:12;;;;;;;;;;;16.40;99.90;;;;;;5031319;28;19921;-63
2022/05/18 01:39:37;;;;;;;;;;;16.30;99.90;;;;;;5031299;28;19928;-64
2022/05/18 01:42:03;;;;;;;;;;;16.30;99.90;;;;;;5030382;28;19921;-64
2022/05/18 01:44:29;;;;;;;;;;;16.30;99.90;;;;;;5031133;28;19917;-65
2022/05/18 01:46:54;;;;;;;;;;;16.30;99.90;;;;;;5030529;28;19928;-64
2022/05/18 01:49:20;;;;;;;;;;;16.40;99.90;;;;;;5031006;28;19992;-64
2022/05/18 01:51:48;;;;;;;;;;;16.40;99.90;;;;;;5030080;28;20043;-64
2022/05/18 01:54:14;;;;;;;;;;;16.40;99.90;;;;;;5030671;28;20043;-64
2022/05/18 01:56:40;;;;;;;;;;;16.40;99.90;;;;;;5030828;28;20020;-64
2022/05/18 01:59:06;;;;;;;;;;;16.40;99.90;;;;;;5030742;28;19917;-64
2022/05/18 02:01:31;;;;;;;;;;;16.40;99.90;;;;;;5029408;28;20392;-64
2022/05/18 02:03:57;;;;;;;;;;;16.40;99.90;;;;;;5030360;28;20373;-64
2022/05/18 02:06:23;;;;;;;;;;;16.40;99.90;;;;;;5029876;28;19936;-64
2022/05/18 02:08:48;;;;;;;;;;;16.40;99.90;;;;;;5030428;28;19944;-64
2022/05/18 02:11:19;;;;;;;;;;;16.40;99.90;;;;;;5029924;28;19916;-64
2022/05/18 02:13:45;;;;;;;;;;;16.40;99.90;;;;;;5030704;28;19927;-64
2022/05/18 02:16:11;;;;;;;;;;;16.40;99.90;;;;;;5030298;28;19917;-64
2022/05/18 02:18:36;;;;;;;;;;;16.30;99.90;;;;;;5027218;28;19921;-64
2022/05/18 02:21:07;;;;;;;;;;;16.40;99.90;;;;;;5029408;28;20373;-64
2022/05/18 02:23:33;;;;;;;;;;;16.40;99.90;;;;;;5030133;28;19930;-64
2022/05/18 02:25:58;;;;;;;;;;;16.30;99.90;;;;;;5030461;28;19928;-64
2022/05/18 02:28:24;;;;;;;;;;;16.30;99.90;;;;;;5030269;28;20070;-64
2022/05/18 02:30:50;;;;;;;;;;;16.30;99.90;;;;;;5033893;28;19923;-64
2022/05/18 02:33:15;;;;;;;;;;;16.20;99.90;;;;;;5049622;28;20450;-64
2022/05/18 02:35:41;;;;;;;;;;;16.30;99.90;;;;;;5049725;28;20022;-64
2022/05/18 02:38:07;;;;;;;;;;;16.20;99.90;;;;;;5049822;28;19943;-64
2022/05/18 02:40:33;;;;;;;;;;;16.20;99.90;;;;;;5049081;28;19966;-64
2022/05/18 02:42:59;;;;;;;;;;;16.20;99.90;;;;;;5049819;28;19917;-64
2022/05/18 02:45:24;;;;;;;;;;;16.20;99.90;;;;;;5049603;28;19921;-65
2022/05/18 02:47:50;;;;;;;;;;;16.10;99.90;;;;;;5048457;28;20420;-64
2022/05/18 02:50:16;;;;;;;;;;;16.10;99.90;;;;;;5049438;28;19927;-64
2022/05/18 02:52:41;;;;;;;;;;;16.10;99.90;;;;;;5048756;28;20106;-64
2022/05/18 02:57:51;;;;;;;;;;;16.00;99.90;;;;;;5029729;28;20088;-64
2022/05/18 03:00:17;;;;;;;;;;;15.90;99.90;;;;;;5032566;28;20041;-67
2022/05/18 03:02:42;;;;;;;;;;;15.90;99.90;;;;;;5029599;28;19921;-64
2022/05/18 03:05:08;;;;;;;;;;;15.80;99.90;;;;;;5029356;28;20383;-64
2022/05/18 03:07:34;;;;;;;;;;;15.80;99.90;;;;;;5019397;28;20008;-64
2022/05/18 03:09:59;;;;;;;;;;;15.70;99.90;;;;;;5029401;28;19971;-65
2022/05/18 03:12:25;;;;;;;;;;;15.70;99.90;;;;;;5029618;28;19927;-63
2022/05/18 03:14:50;;;;;;;;;;;15.70;99.90;;;;;;5029795;28;20389;-64
2022/05/18 03:17:16;;;;;;;;;;;15.80;99.90;;;;;;5029467;28;19923;-64
2022/05/18 03:19:41;;;;;;;;;;;15.80;99.90;;;;;;5029341;28;19921;-64
2022/05/18 03:24:51;;;;;;;;;;;15.90;99.90;;;;;;5029596;28;19921;-65
2022/05/18 03:27:16;;;;;;;;;;;15.90;99.90;;;;;;5030212;28;19976;-63
2022/05/18 03:29:42;;;;;;;;;;;15.90;99.90;;;;;;5032004;28;19975;-66
2022/05/18 03:32:08;;;;;;;;;;;15.90;99.90;;;;;;5024236;28;19929;-64
2022/05/18 03:34:33;;;;;;;;;;;15.90;99.90;;;;;;5029541;28;20312;-64
2022/05/18 03:36:59;;;;;;;;;;;15.80;99.90;;;;;;5030646;28;19929;-64
2022/05/18 03:39:25;;;;;;;;;;;15.80;99.90;;;;;;5039541;28;19982;-65
2022/05/18 03:41:50;;;;;;;;;;;15.80;99.90;;;;;;5036548;28;20668;-64
2022/05/18 03:44:17;;;;;;;;;;;15.80;99.90;;;;;;5029416;28;19924;-64
2022/05/18 03:46:42;;;;;;;;;;;15.80;99.90;;;;;;5029340;28;20535;-64
2022/05/18 03:49:08;;;;;;;;;;;15.80;99.90;;;;;;5029500;28;19960;-64
2022/05/18 03:51:33;;;;;;;;;;;15.90;99.90;;;;;;5028913;28;19967;-64
2022/05/18 03:53:59;;;;;;;;;;;15.80;99.90;;;;;;5031943;28;20230;-64
2022/05/18 03:56:26;;;;;;;;;;;15.80;99.90;;;;;;5033295;28;19917;-64
2022/05/18 03:58:51;;;;;;;;;;;15.80;99.90;;;;;;5032919;28;19917;-64
2022/05/18 04:01:17;;;;;;;;;;;15.80;99.90;;;;;;5031714;28;19921;-64
2022/05/18 04:03:43;;;;;;;;;;;15.80;99.90;;;;;;5032528;28;19974;-64
2022/05/18 04:06:09;;;;;;;;;;;15.80;99.90;;;;;;5032040;28;19933;-64
2022/05/18 04:08:34;;;;;;;;;;;15.90;99.90;;;;;;5032206;28;19921;-64
2022/05/18 04:11:00;;;;;;;;;;;15.90;99.90;;;;;;5049330;28;20353;-64
2022/05/18 04:13:26;;;;;;;;;;;15.90;99.90;;;;;;5032274;28;19923;-65
2022/05/18 04:15:53;;;;;;;;;;;15.90;99.90;;;;;;5032026;28;19929;-65
2022/05/18 04:18:19;;;;;;;;;;;15.90;99.90;;;;;;5032629;28;19917;-63
2022/05/18 04:20:45;;;;;;;;;;;15.90;99.90;;;;;;5023338;28;19928;-64
2022/05/18 04:23:11;;;;;;;;;;;16.00;99.90;;;;;;5031283;28;19932;-64
2022/05/18 04:25:37;;;;;;;;;;;16.00;99.90;;;;;;5032206;28;20015;-64
2022/05/18 04:28:03;;;;;;;;;;;16.00;99.90;;;;;;5032279;28;20011;-62
2022/05/18 04:30:28;;;;;;;;;;;16.00;99.90;;;;;;5031438;28;19975;-63
2022/05/18 04:32:54;;;;;;;;;;;16.00;99.90;;;;;;5032263;28;19916;-63
2022/05/18 04:35:22;;;;;;;;;;;16.10;99.90;;;;;;5031464;28;19956;-64
2022/05/18 04:37:47;;;;;;;;;;;16.00;99.90;;;;;;5031719;28;19971;-63
2022/05/18 04:40:13;;;;;;;;;;;16.10;99.90;;;;;;5025230;28;20435;-63
2022/05/18 04:42:39;;;;;;;;;;;16.10;99.90;;;;;;5030260;28;20326;-63
2022/05/18 04:45:05;;;;;;;;;;;16.10;99.90;;;;;;5031240;28;20008;-63
2022/05/18 04:47:31;;;;;;;;;;;16.00;99.90;;;;;;5032143;28;19987;-63
2022/05/18 04:49:57;;;;;;;;;;;16.10;99.90;;;;;;5030751;28;19924;-63
2022/05/18 04:52:23;;;;;;;;;;;16.10;99.90;;;;;;5030471;28;19957;-63
2022/05/18 04:54:48;;;;;;;;;;;16.10;99.90;;;;;;5029034;28;19929;-64
2022/05/18 04:57:15;;;;;;;;;;;16.20;99.90;;;;;;5023845;28;19927;-63
2022/05/18 04:59:40;;;;;;;;;;;16.30;99.90;;;;;;5022507;28;19922;-63
2022/05/18 05:02:06;;;;;;;;;;;16.40;99.90;;;;;;5026631;28;19924;-68
2022/05/18 05:04:32;;;;;;;;;;;16.50;99.90;;;;;;5030228;28;19921;-64
2022/05/18 05:06:58;;;;;;;;;;;16.50;99.90;;;;;;5030647;28;19924;-64
2022/05/18 05:09:24;;;;;;;;;;;16.60;99.90;;;;;;5030079;28;19921;-64
2022/05/18 05:11:50;;;;;;;;;;;17.70;99.90;;;;;;5031537;28;19923;-64
2022/05/18 05:14:15;;;;;;;;;;;18.20;99.90;;;;;;5030329;28;19967;-64
2022/05/18 05:16:41;;;;;;;;;;;18.30;99.90;;;;;;5030668;28;20308;-64
2022/05/18 05:19:06;;;;;;;;;;;18.40;99.90;;;;;;5031517;28;20270;-64
2022/05/18 05:21:32;;;;;;;;;;;18.90;99.90;;;;;;5028511;28;19921;-63
2022/05/18 05:23:57;;;;;;;;;;;19.70;99.90;;;;;;5030717;28;19917;-64
2022/05/18 05:26:23;;;;;;;;;;;20.20;99.90;;;;;;5030648;28;20300;-64
2022/05/18 05:28:48;;;;;;;;;;;20.00;99.90;;;;;;5029442;28;19960;-64
2022/05/18 05:31:14;;;;;;;;;;;19.60;99.90;;;;;;5043746;28;19969;-64
2022/05/18 05:33:40;;;;;;;;;;;19.40;99.90;;;;;;5062690;28;19916;-64
2022/05/18 05:36:06;;;;;;;;;;;19.10;99.90;;;;;;5062164;28;19920;-64
2022/05/18 05:38:32;;;;;;;;;;;18.80;99.90;;;;;;5055790;28;20355;-64
2022/05/18 05:41:00;;;;;;;;;;;18.60;99.90;;;;;;5058818;28;20033;-64
2022/05/18 05:43:25;;;;;;;;;;;18.50;99.90;;;;;;5046792;28;19928;-64
2022/05/18 05:45:55;;;;;;;;;;;18.40;99.90;;;;;;5050798;28;19920;-64
2022/05/18 05:48:20;;;;;;;;;;;18.40;99.90;;;;;;5051618;28;20372;-64
2022/05/18 05:50:46;;;;;;;;;;;18.40;99.90;;;;;;5050095;28;19920;-64
2022/05/18 05:53:11;;;;;;;;;;;18.40;99.90;;;;;;5051104;28;20376;-64
2022/05/18 05:55:37;;;;;;;;;;;18.30;99.90;;;;;;5050321;28;19921;-64
2022/05/18 05:58:02;;;;;;;;;;;18.30;99.90;;;;;;5050974;28;20467;-64
2022/05/18 06:00:28;;;;;;;;;;;18.40;99.90;;;;;;5048980;28;20348;-64
2022/05/18 06:02:53;;;;;;;;;;;18.30;99.90;;;;;;5050323;28;20542;-64
2022/05/18 06:05:19;;;;;;;;;;;18.20;99.90;;;;;;5049796;28;19920;-64
2022/05/18 06:07:45;;;;;;;;;;;18.20;99.90;;;;;;5043540;28;19920;-63
2022/05/18 06:10:10;;;;;;;;;;;18.20;99.90;;;;;;5050179;28;19917;-64
2022/05/18 06:12:36;;;;;;;;;;;18.20;99.90;;;;;;5050264;28;19924;-63
2022/05/18 06:15:02;;;;;;;;;;;18.30;99.90;;;;;;5049850;28;19920;-64
2022/05/18 06:17:27;;;;;;;;;;;18.20;99.90;;;;;;5047659;28;19917;-64
2022/05/18 06:19:53;;;;;;;;;;;18.20;99.90;;;;;;5046713;28;20391;-63
2022/05/18 06:22:19;;;;;;;;;;;18.30;99.90;;;;;;5049820;28;19917;-64
2022/05/18 06:24:47;;;;;;;;;;;18.30;99.90;;;;;;5049631;28;19922;-64
2022/05/18 06:27:13;;;;;;;;;;;18.30;99.90;;;;;;5049849;28;19932;-64
2022/05/18 06:29:39;;;;;;;;;;;18.40;99.90;;;;;;5050367;28;19917;-64
2022/05/18 06:32:05;;;;;;;;;;;18.40;99.90;;;;;;5048503;28;19922;-64
2022/05/18 06:34:31;;;;;;;;;;;18.50;99.90;;;;;;5049631;28;19961;-64
2022/05/18 06:36:56;;;;;;;;;;;18.60;99.90;;;;;;5049748;28;20718;-64
2022/05/18 06:39:22;;;;;;;;;;;18.70;99.90;;;;;;5049809;28;20018;-64
2022/05/18 06:41:47;;;;;;;;;;;18.80;99.90;;;;;;5049614;28;19927;-64
2022/05/18 06:44:13;;;;;;;;;;;19.10;99.90;;;;;;5049951;28;20434;-64
2022/05/18 06:46:39;;;;;;;;;;;19.60;99.90;;;;;;5049673;28;19966;-64
2022/05/18 06:49:06;;;;;;;;;;;20.00;99.90;;;;;;5049589;28;19920;-64
2022/05/18 06:51:33;;;;;;;;;;;20.60;99.90;;;;;;5049310;28;20383;-64
2022/05/18 06:53:59;;;;;;;;;;;21.30;97.90;;;;;;5049625;28;19917;-64
2022/05/18 06:56:28;;;;;;;;;;;21.20;98.30;;;;;;5049002;28;19916;-64
2022/05/18 06:58:54;;;;;;;;;;;21.30;97.60;;;;;;5050041;28;19917;-64
2022/05/18 07:01:20;;;;;;;;;;;21.00;97.30;;;;;;5047759;28;20058;-64
2022/05/18 07:03:46;;;;;;;;;;;21.10;97.30;;;;;;5050024;28;19920;-64
2022/05/18 07:06:12;;;;;;;;;;;21.60;97.40;;;;;;5048857;28;19974;-64
2022/05/18 07:08:38;;;;;;;;;;;21.60;96.30;;;;;;5049144;28;20003;-64
2022/05/18 07:11:04;;;;;;;;;;;21.40;96.40;;;;;;5049191;28;20071;-64
2022/05/18 07:13:36;;;;;;;;;;;22.10;96.80;;;;;;5049409;28;19963;-64
2022/05/18 07:16:02;;;;;;;;;;;23.00;94.20;;;;;;5049420;28;20262;-64
2022/05/18 07:18:29;;;;;;;;;;;23.90;92.10;;;;;;5049398;28;19921;-64
2022/05/18 07:20:55;;;;;;;;;;;24.10;91.80;;;;;;5048638;28;19916;-65
2022/05/18 07:23:21;;;;;;;;;;;24.70;90.60;;;;;;5049877;28;19940;-65
2022/05/18 07:25:46;;;;;;;;;;;25.20;86.90;;;;;;5049870;28;20681;-64
2022/05/18 07:28:12;;;;;;;;;;;25.80;85.10;;;;;;5051776;28;19920;-64
2022/05/18 07:30:37;;;;;;;;;;;25.80;82.30;;;;;;5051598;28;19923;-64
2022/05/18 07:33:03;;;;;;;;;;;25.50;86.30;;;;;;5053581;28;19924;-64
2022/05/18 07:35:28;;;;;;;;;;;26.00;82.70;;;;;;5052902;28;19924;-64
2022/05/18 07:37:54;;;;;;;;;;;26.20;80.00;;;;;;5053220;28;20031;-64
2022/05/18 07:40:20;;;;;;;;;;;25.50;80.50;;;;;;5055127;28;19916;-64
2022/05/18 07:42:45;;;;;;;;;;;24.90;83.00;;;;;;5045181;28;19921;-64
2022/05/18 07:45:11;;;;;;;;;;;24.40;85.40;;;;;;5038455;28;19916;-64
2022/05/18 07:47:37;;;;;;;;;;;24.30;83.80;;;;;;5052888;28;19924;-64
2022/05/18 07:50:03;;;;;;;;;;;24.50;84.60;;;;;;5053255;28;19927;-64
2022/05/18 07:52:28;;;;;;;;;;;24.10;84.10;;;;;;5052681;28;19921;-64
2022/05/18 07:54:55;;;;;;;;;;;24.30;84.90;;;;;;5042457;28;19917;-64
2022/05/18 07:57:20;;;;;;;;;;;24.10;87.40;;;;;;5047827;28;20082;-64
2022/05/18 07:59:46;;;;;;;;;;;24.30;88.00;;;;;;5046532;28;20042;-65
2022/05/18 08:02:12;;;;;;;;;;;25.30;87.10;;;;;;5052623;28;19928;-64
2022/05/18 08:04:37;;;;;;;;;;;26.40;78.80;;;;;;5045838;28;19916;-65
2022/05/18 08:07:03;;;;;;;;;;;28.10;73.10;;;;;;5045161;28;20381;-65
2022/05/18 08:09:28;;;;;;;;;;;29.40;68.50;;;;;;5043748;28;19987;-65
2022/05/18 08:17:23;;;;;;;;;;;30.90;60.70;;;;;;5044146;28;20345;-63
2022/05/18 08:19:48;;;;;;;;;;;29.70;62.60;;;;;;5042297;28;20530;-64
2022/05/18 08:22:14;;;;;;;;;;;28.70;67.50;;;;;;5042773;28;19917;-63
2022/05/18 08:24:40;;;;;;;;;;;28.80;66.90;;;;;;5049900;28;20003;-63
2022/05/18 08:27:10;;;;;;;;;;;29.40;64.00;;;;;;5059925;28;19932;-63
2022/05/18 08:29:36;;;;;;;;;;;30.30;61.30;;;;;;5060982;28;20296;-63
2022/05/18 08:32:02;;;;;;;;;;;31.00;60.00;;;;;;5057108;28;19920;-65
2022/05/18 08:34:28;;;;;;;;;;;31.70;58.80;;;;;;5066065;28;20399;-63
2022/05/18 08:36:53;;;;;;;;;;;31.60;56.70;;;;;;5057508;28;19924;-62
2022/05/18 08:39:19;;;;;;;;;;;32.00;55.40;;;;;;5051365;28;20295;-62
2022/05/18 08:41:45;;;;;;;;;;;32.60;56.10;;;;;;5050810;28;20384;-62
2022/05/18 08:44:22;;;;;;;;;;;32.30;54.30;;;;;;5059247;28;19916;-63
2022/05/18 08:46:54;;;;;;;;;;;31.70;55.70;;;;;;5053817;28;20780;-63
2022/05/18 08:49:34;;;;;;;;;;;30.50;57.50;;;;;;5041747;28;19921;-63
2022/05/18 08:52:03;;;;;;;;;;;29.50;56.30;;;;;;5044357;28;20409;-63
2022/05/18 08:54:40;;;;;;;;;;;28.80;58.10;;;;;;5051978;28;19924;-62
2022/05/18 08:57:13;;;;;;;;;;;28.00;59.80;;;;;;5049944;28;20390;-64
2022/05/18 08:59:39;;;;;;;;;;;27.50;63.30;;;;;;5051867;28;19936;-64
2022/05/18 09:02:20;;;;;;;;;;;27.20;63.80;;;;;;5049562;28;19928;-62
2022/05/18 09:04:46;;;;;;;;;;;27.00;67.20;;;;;;5031708;28;19918;-63
2022/05/18 09:07:15;;;;;;;;;;;27.00;65.20;;;;;;5050879;28;19974;-62
2022/05/18 09:12:31;;;;;;;;;;;26.30;67.20;;;;;;5050344;28;19916;-63
2022/05/18 09:14:59;;;;;;;;;;;26.30;67.80;;;;;;5051408;28;20465;-63
2022/05/18 09:17:44;;;;;;;;;;;26.10;66.80;;;;;;5048836;28;19917;-63
2022/05/18 09:20:32;;;;;;;;;;;26.00;67.50;;;;;;5049754;28;19978;-64
2022/05/18 09:23:07;;;;;;;;;;;26.00;69.40;;;;;;5045839;28;20474;-64
2022/05/18 09:25:33;;;;;;;;;;;26.00;68.40;;;;;;5052379;28;19921;-64
2022/05/18 09:28:01;;;;;;;;;;;26.10;70.90;;;;;;5051255;28;19917;-64
2022/05/18 09:30:32;;;;;;;;;;;26.10;69.00;;;;;;5049717;28;19916;-63
2022/05/18 09:33:06;;;;;;;;;;;26.00;67.50;;;;;;5049286;28;20316;-63
2022/05/18 09:35:34;;;;;;;;;;;26.00;75.80;;;;;;5050728;28;20014;-64
2022/05/18 09:38:05;;;;;;;;;;;25.90;77.40;;;;;;5050405;28;20019;-62
2022/05/18 09:40:40;;;;;;;;;;;25.80;78.10;;;;;;5051294;28;20392;-63
2022/05/18 09:43:12;;;;;;;;;;;25.80;78.20;;;;;;5052730;28;20015;-63
2022/05/18 09:45:40;;;;;;;;;;;25.60;77.30;;;;;;5058881;28;20649;-63
2022/05/18 09:48:05;;;;;;;;;;;25.60;78.30;;;;;;5058742;28;19939;-63
2022/05/18 09:50:31;;;;;;;;;;;25.90;78.40;;;;;;5060956;28;19920;-63
2022/05/18 09:52:57;;;;;;;;;;;26.00;79.10;;;;;;5058961;28;19921;-63
2022/05/18 09:55:25;;;;;;;;;;;26.30;76.50;;;;;;5057766;28;19924;-63
2022/05/18 09:57:54;;;;;;;;;;;26.40;76.90;;;;;;5059440;28;19917;-64
2022/05/18 10:00:22;;;;;;;;;;;26.40;76.90;;;;;;5068999;28;19928;-64
2022/05/18 10:08:21;;;;;;;;;;;25.70;77.50;;;;;;5049858;28;19916;-62
2022/05/18 10:10:46;;;;;;;;;;;25.60;79.10;;;;;;5044665;28;19922;-64
2022/05/18 10:13:13;;;;;;;;;;;25.60;77.90;;;;;;5050572;28;20011;-63
2022/05/18 10:15:44;;;;;;;;;;;25.60;81.00;;;;;;5049680;28;19974;-62
2022/05/18 10:18:16;;;;;;;;;;;25.40;80.50;;;;;;5052315;28;19920;-63
2022/05/18 10:20:58;;;;;;;;;;;25.50;81.00;;;;;;5051218;28;19928;-64
2022/05/18 10:23:36;;;;;;;;;;;25.70;80.00;;;;;;5049398;28;19959;-63
2022/05/18 10:26:03;;;;;;;;;;;25.90;79.90;;;;;;5054373;28;19974;-63
2022/05/18 10:28:30;;;;;;;;;;;26.00;82.70;;;;;;5050415;28;19917;-63
2022/05/18 10:31:03;;;;;;;;;;;26.00;81.70;;;;;;5050959;28;20011;-64
2022/05/18 10:33:31;;;;;;;;;;;25.80;80.40;;;;;;5045084;28;19920;-64
2022/05/18 10:36:06;;;;;;;;;;;25.80;79.60;;;;;;5039858;28;20391;-64
2022/05/18 10:38:33;;;;;;;;;;;25.70;79.20;;;;;;5046759;28;19917;-64
2022/05/18 10:41:02;;;;;;;;;;;25.30;79.60;;;;;;5042855;28;19971;-63
2022/05/18 10:43:35;;;;;;;;;;;25.00;79.00;;;;;;5057108;28;20559;-63
2022/05/18 10:46:02;;;;;;;;;;;24.80;81.10;;;;;;5044643;28;20287;-63
2022/05/18 10:48:30;;;;;;;;;;;25.00;82.30;;;;;;5042312;28;19917;-63
2022/05/18 10:51:10;;;;;;;;;;;25.10;78.90;;;;;;5040793;28;19917;-63
2022/05/18 10:53:38;;;;;;;;;;;25.10;80.80;;;;;;5041959;28;19924;-64
2022/05/18 10:56:09;;;;;;;;;;;25.40;82.10;;;;;;5042558;28;20024;-65
2022/05/18 10:58:43;;;;;;;;;;;25.80;83.10;;;;;;5042546;28;20288;-64
2022/05/18 11:01:09;;;;;;;;;;;25.70;77.50;;;;;;5042049;28;19920;-66
2022/05/18 11:03:34;;;;;;;;;;;25.50;78.80;;;;;;5043726;28;20015;-66
2022/05/18 11:06:07;;;;;;;;;;;25.40;78.10;;;;;;5043687;28;20047;-65
2022/05/18 11:08:33;;;;;;;;;;;25.30;80.70;;;;;;5041704;28;20007;-68
2022/05/18 11:11:07;;;;;;;;;;;25.20;79.70;;;;;;5040621;28;20491;-67
2022/05/18 11:13:46;;;;;;;;;;;25.00;79.40;;;;;;5039533;28;20480;-68
2022/05/18 11:16:22;;;;;;;;;;;25.00;78.80;;;;;;5040585;28;19921;-66
2022/05/18 11:18:56;;;;;;;;;;;25.00;78.20;;;;;;5042438;28;20058;-67
2022/05/18 11:21:26;;;;;;;;;;;24.80;78.10;;;;;;5040510;28;19920;-66
2022/05/18 11:23:58;;;;;;;;;;;24.70;80.10;;;;;;5040384;28;19920;-65
2022/05/18 11:26:28;;;;;;;;;;;24.60;78.20;;;;;;5053069;28;20381;-66
2022/05/18 11:28:59;;;;;;;;;;;24.50;79.60;;;;;;5042117;28;19990;-66
2022/05/18 11:31:37;;;;;;;;;;;24.50;79.30;;;;;;5051891;28;20396;-67
2022/05/18 11:34:11;;;;;;;;;;;24.40;78.80;;;;;;5036437;28;19917;-67
2022/05/18 11:36:55;;;;;;;;;;;24.80;79.40;;;;;;5036883;28;20375;-66
2022/05/18 11:39:26;;;;;;;;;;;25.10;80.30;;;;;;5037727;28;19925;-66
2022/05/18 11:42:00;;;;;;;;;;;25.40;77.50;;;;;;5040105;28;20446;-67
2022/05/18 11:44:44;;;;;;;;;;;25.40;77.90;;;;;;5039325;28;19943;-67
2022/05/18 11:47:18;;;;;;;;;;;24.90;76.30;;;;;;5037677;28;19932;-68
2022/05/18 11:49:47;;;;;;;;;;;25.00;77.40;;;;;;5038127;28;19917;-68
2022/05/18 11:52:29;;;;;;;;;;;25.30;79.00;;;;;;5037035;28;19921;-67
2022/05/18 11:55:15;;;;;;;;;;;25.50;78.40;;;;;;5054009;28;19995;-68
2022/05/18 11:58:01;;;;;;;;;;;25.10;76.70;;;;;;5029910;28;19917;-66
2022/05/18 12:00:58;;;;;;;;;;;25.00;77.00;;;;;;5030287;28;19920;-67
2022/05/18 12:03:32;;;;;;;;;;;25.00;76.30;;;;;;5048097;28;19922;-67
2022/05/18 12:06:09;;;;;;;;;;;25.00;76.00;;;;;;5038765;28;19930;-65
2022/05/18 12:08:35;;;;;;;;;;;24.90;77.70;;;;;;5039627;28;20484;-65
2022/05/18 12:11:21;;;;;;;;;;;25.10;78.30;;;;;;5042623;28;20435;-65
2022/05/18 12:13:47;;;;;;;;;;;25.30;77.50;;;;;;5042271;28;19975;-65
2022/05/18 12:16:12;;;;;;;;;;;25.20;76.90;;;;;;5049954;28;19920;-65
2022/05/18 12:18:44;;;;;;;;;;;25.30;77.40;;;;;;5042903;28;19940;-65
2022/05/18 12:21:19;;;;;;;;;;;25.50;78.30;;;;;;5041151;28;19916;-65
2022/05/18 12:23:54;;;;;;;;;;;25.60;75.90;;;;;;5046703;28;19920;-65
2022/05/18 12:26:21;;;;;;;;;;;25.30;76.80;;;;;;5043677;28;19931;-65
2022/05/18 12:28:47;;;;;;;;;;;25.20;76.80;;;;;;5043172;28;19959;-65
2022/05/18 12:31:13;;;;;;;;;;;25.00;76.80;;;;;;5042132;28;19920;-66
2022/05/18 12:33:46;;;;;;;;;;;24.90;77.80;;;;;;5040429;28;19923;-66
2022/05/18 12:36:15;;;;;;;;;;;24.90;78.90;;;;;;5040490;28;20003;-65
2022/05/18 12:38:57;;;;;;;;;;;25.00;79.30;;;;;;5040752;28;20008;-65
2022/05/18 12:41:27;;;;;;;;;;;24.80;76.50;;;;;;5055788;28;20014;-65
2022/05/18 12:44:05;;;;;;;;;;;24.90;77.70;;;;;;5041002;28;19924;-65
2022/05/18 12:46:58;;;;;;;;;;;25.10;77.70;;;;;;5042040;28;19921;-65
2022/05/18 12:49:29;;;;;;;;;;;25.10;76.60;;;;;;5040705;28;20007;-65
2022/05/18 12:52:02;;;;;;;;;;;25.40;76.40;;;;;;5041380;28;20372;-65
2022/05/18 12:54:29;;;;;;;;;;;25.20;76.80;;;;;;5042748;28;19988;-65
2022/05/18 12:57:04;;;;;;;;;;;25.00;75.50;;;;;;5058195;28;19924;-65
2022/05/18 12:59:43;;;;;;;;;;;24.90;77.60;;;;;;5042356;28;20023;-65
2022/05/18 13:02:18;;;;;;;;;;;24.90;76.90;;;;;;5039969;28;19927;-65
2022/05/18 13:04:46;;;;;;;;;;;24.80;75.50;;;;;;5041824;28;19920;-65
2022/05/18 13:07:23;;;;;;;;;;;25.20;75.70;;;;;;5043293;28;20285;-65
2022/05/18 13:09:53;;;;;;;;;;;25.20;74.00;;;;;;5043510;28;19916;-65
2022/05/18 13:12:27;;;;;;;;;;;25.20;74.60;;;;;;5042098;28;19925;-65
2022/05/18 13:15:07;;;;;;;;;;;25.60;75.30;;;;;;5041369;28;19921;-65
2022/05/18 13:17:45;;;;;;;;;;;25.70;75.50;;;;;;5045058;28;19999;-65
2022/05/18 13:20:26;;;;;;;;;;;25.80;72.50;;;;;;5042356;28;19971;-65
2022/05/18 13:23:10;;;;;;;;;;;25.70;74.20;;;;;;5041181;28;19922;-65
2022/05/18 13:25:37;;;;;;;;;;;25.70;73.60;;;;;;5041728;28;19916;-65
2022/05/18 13:28:06;;;;;;;;;;;25.80;73.50;;;;;;5041358;28;19921;-65
2022/05/18 13:30:52;;;;;;;;;;;25.80;73.10;;;;;;5040275;28;20281;-65
2022/05/18 13:33:18;;;;;;;;;;;25.90;72.30;;;;;;5041631;28;20409;-65
2022/05/18 13:35:46;;;;;;;;;;;25.70;71.50;;;;;;5041745;28;19920;-65
2022/05/18 13:38:13;;;;;;;;;;;25.60;71.70;;;;;;5041271;28;19916;-65
2022/05/18 13:40:45;;;;;;;;;;;25.70;76.00;;;;;;5040019;28;20301;-65
2022/05/18 13:43:12;;;;;;;;;;;25.60;70.50;;;;;;5041244;28;20015;-65
2022/05/18 13:45:37;;;;;;;;;;;25.40;73.10;;;;;;5041584;28;20393;-64
2022/05/18 13:48:09;;;;;;;;;;;25.50;71.80;;;;;;5042752;28;20785;-64
2022/05/18 13:50:40;;;;;;;;;;;25.80;72.70;;;;;;5041208;28;19924;-64
2022/05/18 13:53:08;;;;;;;;;;;26.00;72.50;;;;;;5040909;28;20406;-64
2022/05/18 13:55:41;;;;;;;;;;;26.10;73.90;;;;;;5039224;28;20002;-64
2022/05/18 13:58:08;;;;;;;;;;;25.90;71.70;;;;;;5042104;28;20010;-64
2022/05/18 14:00:45;;;;;;;;;;;25.70;71.00;;;;;;5040448;28;19921;-64
2022/05/18 14:03:15;;;;;;;;;;;25.60;72.60;;;;;;5039605;28;20385;-64
2022/05/18 14:05:40;;;;;;;;;;;25.60;71.60;;;;;;5039453;28;20058;-65
2022/05/18 14:08:22;;;;;;;;;;;25.70;71.10;;;;;;5040551;28;20004;-65
2022/05/18 14:10:47;;;;;;;;;;;25.80;70.60;;;;;;5039940;28;19920;-64
2022/05/18 14:13:13;;;;;;;;;;;25.70;70.70;;;;;;5041166;28;19973;-65
2022/05/18 14:15:40;;;;;;;;;;;25.70;70.50;;;;;;5039442;28;20590;-65
2022/05/18 14:18:08;;;;;;;;;;;25.70;72.50;;;;;;5056177;28;20414;-65
2022/05/18 14:20:39;;;;;;;;;;;25.40;72.10;;;;;;5040294;28;19920;-65
2022/05/18 14:23:07;;;;;;;;;;;25.30;72.80;;;;;;5041596;28;19928;-64
2022/05/18 14:25:35;;;;;;;;;;;25.40;71.50;;;;;;5040926;28;20446;-65
2022/05/18 14:28:02;;;;;;;;;;;25.40;71.80;;;;;;5039332;28;19925;-65
2022/05/18 14:30:38;;;;;;;;;;;25.30;70.20;;;;;;5039818;28;19941;-65
2022/05/18 14:33:23;;;;;;;;;;;25.30;71.10;;;;;;5041718;28;19992;-68
2022/05/18 14:35:50;;;;;;;;;;;25.40;71.30;;;;;;5041392;28;20040;-65
2022/05/18 14:38:28;;;;;;;;;;;25.40;71.90;;;;;;5041435;28;19924;-65
2022/05/18 14:40:54;;;;;;;;;;;25.30;69.70;;;;;;5041052;28;20273;-65